Time;durP1;ratioP1;P1;durP2;ratioP2;P2;SDS_P1;SDS_P2;PMS_P1;PMS_P2;Temp;Humidity;BMP_temperature;BMP_pressure;BME280_temperature;BME280_humidity;BME280_pressure;Samples;Min_cycle;Max_cycle;Signal;HPM_P1;HPM_P2
2022/04/05 00:02:11;;;;;;;24.08;15.40;;;1.60;99.90;;;;;;5114127;28;20023;-69
2022/04/05 00:04:37;;;;;;;23.77;15.48;;;1.70;99.90;;;;;;5114140;28;20381;-73
2022/04/05 00:07:03;;;;;;;30.25;18.55;;;1.60;99.90;;;;;;5115323;28;20027;-70
2022/04/05 00:09:28;;;;;;;30.52;17.48;;;1.60;99.90;;;;;;5114934;28;20034;-73
2022/04/05 00:11:54;;;;;;;28.65;18.98;;;1.60;99.90;;;;;;5115342;28;20476;-69
2022/04/05 00:14:20;;;;;;;24.30;16.98;;;1.50;99.90;;;;;;5115141;28;20032;-70
2022/04/05 00:16:45;;;;;;;22.85;15.75;;;1.50;99.90;;;;;;5115024;28;20035;-73
2022/04/05 00:19:11;;;;;;;28.98;18.48;;;1.50;99.90;;;;;;5114520;28;20031;-71
2022/04/05 00:21:36;;;;;;;27.25;17.63;;;1.40;99.90;;;;;;5114863;28;20035;-70
2022/04/05 00:24:02;;;;;;;25.35;17.02;;;1.40;99.90;;;;;;5115054;28;20392;-73
2022/04/05 00:26:27;;;;;;;26.52;16.92;;;1.40;99.90;;;;;;5114965;28;20102;-70
2022/04/05 00:28:53;;;;;;;27.70;17.95;;;1.30;99.90;;;;;;5114894;28;20106;-73
2022/04/05 00:31:19;;;;;;;24.50;16.52;;;1.30;99.90;;;;;;5113037;28;20073;-73
2022/04/05 00:33:44;;;;;;;27.35;18.20;;;1.20;99.90;;;;;;5114804;28;20019;-72
2022/04/05 00:36:10;;;;;;;25.83;17.52;;;1.10;99.90;;;;;;5114724;28;20349;-69
2022/04/05 00:38:36;;;;;;;27.13;17.83;;;1.10;99.90;;;;;;5113364;28;20522;-69
2022/04/05 00:41:01;;;;;;;27.85;18.38;;;1.10;99.90;;;;;;5114361;28;20028;-72
2022/04/05 00:43:27;;;;;;;28.10;19.02;;;1.00;99.90;;;;;;5114573;28;20410;-73
2022/04/05 00:45:54;;;;;;;27.92;17.92;;;1.00;99.90;;;;;;5114534;28;20023;-73
2022/04/05 00:48:45;;;;;;;34.08;20.92;;;1.00;99.90;;;;;;5113274;28;20467;-73
2022/04/05 00:51:11;;;;;;;27.05;17.80;;;1.00;99.90;;;;;;5114289;28;20015;-70
2022/04/05 00:53:37;;;;;;;29.70;19.75;;;0.90;99.90;;;;;;5114421;27;20521;-73
2022/04/05 00:56:05;;;;;;;31.15;19.73;;;0.90;99.90;;;;;;5112991;28;20511;-73
2022/04/05 00:58:32;;;;;;;32.53;19.73;;;0.90;99.90;;;;;;5112908;28;20035;-73
2022/04/05 01:00:58;;;;;;;31.73;18.95;;;0.90;99.90;;;;;;5112841;28;20380;-70
2022/04/05 01:03:25;;;;;;;33.67;20.92;;;0.90;99.90;;;;;;5114235;27;20026;-74
2022/04/05 01:05:52;;;;;;;32.00;19.42;;;0.90;99.90;;;;;;5112905;28;20023;-70
2022/04/05 01:08:20;;;;;;;35.65;21.10;;;0.90;99.90;;;;;;5112822;28;20077;-70
2022/04/05 01:10:47;;;;;;;30.52;20.67;;;0.90;99.90;;;;;;5113968;28;20028;-72
2022/04/05 01:13:12;;;;;;;32.95;19.25;;;0.90;99.90;;;;;;5114074;28;20016;-73
2022/04/05 01:15:39;;;;;;;33.63;21.98;;;0.90;99.90;;;;;;5112850;28;20057;-70
2022/04/05 01:18:05;;;;;;;37.03;22.17;;;0.90;99.90;;;;;;5112586;28;20484;-70
2022/04/05 01:20:32;;;;;;;32.83;20.13;;;0.90;99.90;;;;;;5113736;28;20030;-70
2022/04/05 01:22:58;;;;;;;38.95;22.55;;;0.90;99.90;;;;;;5113924;28;20019;-70
2022/04/05 01:25:23;;;;;;;36.85;21.85;;;0.90;99.90;;;;;;5113845;28;20042;-73
2022/04/05 01:27:50;;;;;;;35.78;22.33;;;0.90;99.90;;;;;;5112652;28;20461;-73
2022/04/05 01:30:16;;;;;;;35.30;21.95;;;0.90;99.90;;;;;;5113594;28;20019;-70
2022/04/05 01:32:42;;;;;;;29.27;18.83;;;0.90;99.90;;;;;;5112997;28;20511;-69
2022/04/05 01:35:09;;;;;;;31.70;20.65;;;0.90;99.90;;;;;;5112495;28;20020;-69
2022/04/05 01:37:36;;;;;;;32.63;20.45;;;0.80;99.90;;;;;;5113627;28;20389;-69
2022/04/05 01:40:02;;;;;;;34.00;20.83;;;0.90;99.90;;;;;;5113658;28;20050;-69
2022/04/05 01:42:27;;;;;;;38.92;23.45;;;0.90;99.90;;;;;;5113495;28;20031;-73
2022/04/05 01:44:53;;;;;;;33.35;20.45;;;0.90;99.90;;;;;;5113641;28;20015;-70
2022/04/05 01:47:19;;;;;;;33.53;19.83;;;0.90;99.90;;;;;;5111981;28;20024;-72
2022/04/05 01:49:46;;;;;;;35.38;22.02;;;0.80;99.90;;;;;;5112365;28;20016;-71
2022/04/05 01:52:12;;;;;;;30.80;20.50;;;0.80;99.90;;;;;;5113390;28;20431;-72
2022/04/05 01:54:41;;;;;;;33.40;20.95;;;0.80;99.90;;;;;;5113519;28;20031;-73
2022/04/05 01:57:07;;;;;;;32.58;19.42;;;0.80;99.90;;;;;;5113469;28;20047;-70
2022/04/05 01:59:35;;;;;;;34.60;20.23;;;0.90;99.90;;;;;;5112358;28;20046;-73
2022/04/05 02:02:05;;;;;;;33.65;20.08;;;0.80;99.90;;;;;;5113359;28;20124;-70
2022/04/05 02:04:31;;;;;;;34.58;21.98;;;0.80;99.90;;;;;;5113557;28;20353;-73
2022/04/05 02:06:57;;;;;;;33.95;22.15;;;0.80;99.90;;;;;;5112093;28;20089;-70
2022/04/05 02:09:23;;;;;;;34.13;20.27;;;0.80;99.90;;;;;;5113417;28;20027;-72
2022/04/05 02:11:48;;;;;;;34.97;21.27;;;0.80;99.90;;;;;;5113292;28;20024;-72
2022/04/05 02:14:15;;;;;;;32.22;19.65;;;0.80;99.90;;;;;;5113385;28;20447;-73
2022/04/05 02:16:42;;;;;;;29.20;19.23;;;0.80;99.90;;;;;;5113360;28;20056;-70
2022/04/05 02:19:09;;;;;;;37.42;22.27;;;0.80;99.90;;;;;;5112073;28;20031;-72
2022/04/05 02:21:35;;;;;;;29.13;19.13;;;0.80;99.90;;;;;;5113017;28;20030;-69
2022/04/05 02:24:01;;;;;;;31.45;18.67;;;0.80;99.90;;;;;;5113312;28;20019;-69
2022/04/05 02:26:27;;;;;;;31.70;21.17;;;0.80;99.90;;;;;;5113251;28;20019;-73
2022/04/05 02:28:52;;;;;;;33.30;19.33;;;0.80;99.90;;;;;;5113260;28;20027;-72
2022/04/05 02:31:18;;;;;;;29.08;19.33;;;0.80;99.90;;;;;;5112933;28;20400;-73
2022/04/05 02:33:44;;;;;;;32.75;19.73;;;0.80;99.90;;;;;;5112924;28;20065;-73
2022/04/05 02:36:10;;;;;;;30.92;20.40;;;0.80;99.90;;;;;;5111908;28;20024;-73
2022/04/05 02:38:36;;;;;;;29.98;19.15;;;0.80;99.90;;;;;;5113127;28;20024;-73
2022/04/05 02:41:05;;;;;;;35.67;20.50;;;0.80;99.90;;;;;;5111734;28;20057;-69
2022/04/05 02:43:31;;;;;;;33.45;20.55;;;0.80;99.90;;;;;;5114298;27;20024;-72
2022/04/05 02:45:56;;;;;;;37.17;21.85;;;0.90;99.90;;;;;;5116996;28;20069;-72
2022/04/05 02:48:23;;;;;;;33.10;20.90;;;0.90;99.90;;;;;;5117004;28;20016;-73
2022/04/05 02:50:49;;;;;;;33.40;22.00;;;0.90;99.90;;;;;;5115542;28;20030;-71
2022/04/05 02:53:14;;;;;;;34.53;20.92;;;0.90;99.90;;;;;;5115151;28;20052;-72
2022/04/05 02:55:41;;;;;;;32.42;21.35;;;0.90;99.90;;;;;;5116713;28;20098;-76
2022/04/05 02:58:07;;;;;;;31.83;21.45;;;0.90;99.90;;;;;;5116598;28;20144;-72
2022/04/05 03:00:33;;;;;;;33.67;21.40;;;0.90;99.90;;;;;;5115386;28;20030;-75
2022/04/05 03:02:59;;;;;;;36.50;22.05;;;1.00;99.90;;;;;;5116353;28;20031;-75
2022/04/05 03:05:25;;;;;;;36.45;22.25;;;1.00;99.90;;;;;;5116458;28;20019;-75
2022/04/05 03:07:51;;;;;;;36.53;22.30;;;1.00;99.90;;;;;;5115256;28;20024;-76
2022/04/05 03:10:16;;;;;;;35.00;21.33;;;1.00;99.90;;;;;;5116456;28;20019;-73
2022/04/05 03:12:42;;;;;;;36.75;22.50;;;1.00;99.90;;;;;;5116316;28;20024;-69
2022/04/05 03:15:09;;;;;;;36.13;21.58;;;1.00;99.90;;;;;;5115109;28;20028;-73
2022/04/05 03:17:40;;;;;;;39.03;22.52;;;1.00;99.90;;;;;;5116141;28;20082;-69
2022/04/05 03:20:06;;;;;;;34.95;21.38;;;1.00;99.90;;;;;;5115042;28;20023;-73
2022/04/05 03:22:32;;;;;;;42.30;22.88;;;1.10;99.90;;;;;;5116086;28;20376;-69
2022/04/05 03:24:58;;;;;;;36.03;21.33;;;1.10;99.90;;;;;;5116175;28;20028;-69
2022/04/05 03:27:23;;;;;;;32.63;20.80;;;1.00;99.90;;;;;;5116027;28;20026;-75
2022/04/05 03:29:49;;;;;;;34.58;21.15;;;1.10;99.90;;;;;;5116108;28;20077;-72
2022/04/05 03:32:14;;;;;;;34.10;21.08;;;1.10;99.90;;;;;;5114441;28;20122;-72
2022/04/05 03:34:40;;;;;;;35.03;20.85;;;1.00;99.90;;;;;;5115771;28;20479;-75
2022/04/05 03:37:06;;;;;;;35.50;23.67;;;1.00;99.90;;;;;;5115907;28;20397;-75
2022/04/05 03:39:32;;;;;;;31.40;21.58;;;1.10;99.90;;;;;;5115812;28;20125;-73
2022/04/05 03:41:58;;;;;;;33.70;22.23;;;1.00;99.90;;;;;;5114592;28;20077;-71
2022/04/05 03:44:24;;;;;;;38.22;22.33;;;1.10;99.90;;;;;;5115644;28;20068;-75
2022/04/05 03:46:51;;;;;;;34.72;21.67;;;1.10;99.90;;;;;;5115753;28;20061;-72
2022/04/05 03:49:17;;;;;;;34.60;21.95;;;1.10;99.90;;;;;;5115695;28;20023;-75
2022/04/05 03:51:42;;;;;;;31.80;21.70;;;1.10;99.90;;;;;;5114461;28;20028;-74
2022/04/05 03:54:08;;;;;;;34.88;21.08;;;1.10;99.90;;;;;;5114490;27;20030;-73
2022/04/05 03:56:33;;;;;;;37.40;22.50;;;1.10;99.90;;;;;;5115492;28;20105;-72
2022/04/05 03:58:59;;;;;;;37.50;22.55;;;1.10;99.90;;;;;;5115564;28;20023;-73
2022/04/05 04:01:24;;;;;;;30.90;19.17;;;1.10;99.90;;;;;;5114110;28;20020;-71
2022/04/05 04:03:50;;;;;;;36.50;22.35;;;1.20;99.90;;;;;;5115061;28;20031;-73
2022/04/05 04:06:15;;;;;;;39.30;23.23;;;1.20;99.90;;;;;;5115301;28;20032;-75
2022/04/05 04:08:41;;;;;;;33.63;21.48;;;1.20;99.90;;;;;;5115404;28;20031;-75
2022/04/05 04:11:07;;;;;;;35.47;20.95;;;1.20;99.90;;;;;;5115277;28;20047;-71
2022/04/05 04:13:32;;;;;;;34.35;21.15;;;1.20;99.90;;;;;;5115265;28;20034;-72
2022/04/05 04:15:58;;;;;;;32.92;20.77;;;1.20;99.90;;;;;;5113907;28;20024;-71
2022/04/05 04:18:23;;;;;;;36.97;22.13;;;1.20;99.90;;;;;;5115121;28;20111;-72
2022/04/05 04:20:49;;;;;;;33.08;22.15;;;1.20;99.90;;;;;;5115109;28;20035;-72
2022/04/05 04:23:15;;;;;;;38.25;24.98;;;1.30;99.90;;;;;;5115027;28;20503;-71
2022/04/05 04:25:41;;;;;;;35.90;21.50;;;1.30;99.90;;;;;;5113534;28;20038;-73
2022/04/05 04:28:08;;;;;;;35.40;22.95;;;1.30;99.90;;;;;;5113554;28;20023;-69
2022/04/05 04:30:35;;;;;;;37.10;23.60;;;1.30;99.90;;;;;;5115064;28;20054;-73
2022/04/05 04:33:01;;;;;;;41.67;22.25;;;1.30;99.90;;;;;;5114567;28;20118;-69
2022/04/05 04:35:27;;;;;;;36.20;22.80;;;1.30;99.90;;;;;;5114471;28;20015;-70
2022/04/05 04:37:53;;;;;;;43.75;25.25;;;1.30;99.90;;;;;;5113331;28;20366;-73
2022/04/05 04:40:19;;;;;;;39.45;22.70;;;1.30;99.90;;;;;;5114713;28;20030;-71
2022/04/05 04:42:45;;;;;;;34.47;23.15;;;1.30;99.90;;;;;;5113274;28;20027;-73
2022/04/05 04:45:11;;;;;;;39.15;23.17;;;1.40;99.90;;;;;;5114416;28;20028;-75
2022/04/05 04:47:37;;;;;;;36.20;22.48;;;1.40;99.90;;;;;;5113260;28;20055;-72
2022/04/05 04:50:04;;;;;;;34.92;22.23;;;1.40;99.90;;;;;;5113294;28;20448;-72
2022/04/05 04:52:30;;;;;;;33.60;20.60;;;1.30;99.90;;;;;;5113064;28;20123;-74
2022/04/05 04:54:55;;;;;;;41.10;23.02;;;1.40;99.90;;;;;;5114132;28;20094;-72
2022/04/05 04:57:23;;;;;;;32.50;20.25;;;1.40;99.90;;;;;;5112502;28;20036;-69
2022/04/05 04:59:49;;;;;;;34.88;20.80;;;1.40;99.90;;;;;;5114087;28;20102;-73
2022/04/05 05:02:15;;;;;;;38.55;24.30;;;1.40;99.90;;;;;;5114290;28;20098;-69
2022/04/05 05:04:40;;;;;;;36.08;21.42;;;1.40;99.90;;;;;;5114020;28;20024;-70
2022/04/05 05:07:06;;;;;;;38.88;21.52;;;1.40;99.90;;;;;;5113936;28;20030;-70
2022/04/05 05:09:32;;;;;;;39.60;22.90;;;1.50;99.90;;;;;;5114018;27;20051;-71
2022/04/05 05:11:58;;;;;;;45.55;25.45;;;1.50;99.90;;;;;;5114113;28;20102;-73
2022/04/05 05:14:23;;;;;;;38.03;24.02;;;1.50;99.90;;;;;;5114020;28;20433;-73
2022/04/05 05:16:49;;;;;;;40.25;23.00;;;1.50;99.90;;;;;;5109825;27;20027;-69
2022/04/05 05:19:14;;;;;;;38.17;22.40;;;1.50;99.90;;;;;;5111955;28;20032;-71
2022/04/05 05:21:40;;;;;;;40.45;23.10;;;1.50;99.90;;;;;;5111815;28;20027;-71
2022/04/05 05:24:06;;;;;;;38.25;22.45;;;1.50;99.90;;;;;;5112409;28;20031;-74
2022/04/05 05:26:31;;;;;;;43.75;24.83;;;1.50;99.90;;;;;;5112858;28;20016;-71
2022/04/05 05:28:57;;;;;;;42.28;25.77;;;1.50;99.90;;;;;;5112616;28;20047;-71
2022/04/05 05:31:22;;;;;;;38.65;23.42;;;1.60;99.90;;;;;;5112791;28;20051;-71
2022/04/05 05:33:48;;;;;;;37.65;23.17;;;1.60;99.90;;;;;;5110051;28;20106;-71
2022/04/05 05:36:13;;;;;;;38.92;23.67;;;1.60;99.90;;;;;;5110743;28;20019;-71
2022/04/05 05:38:39;;;;;;;39.30;23.92;;;1.60;99.90;;;;;;5111393;28;20100;-72
2022/04/05 05:41:04;;;;;;;40.28;22.05;;;1.60;99.90;;;;;;5111807;28;20028;-74
2022/04/05 05:43:30;;;;;;;40.15;24.13;;;1.60;99.90;;;;;;5109634;28;20035;-74
2022/04/05 05:45:56;;;;;;;37.22;22.85;;;1.60;99.90;;;;;;5110253;28;20490;-71
2022/04/05 05:48:21;;;;;;;38.20;22.88;;;1.60;99.90;;;;;;5113548;28;20058;-71
2022/04/05 05:50:48;;;;;;;36.45;22.13;;;1.70;99.90;;;;;;5111301;28;20031;-71
2022/04/05 05:53:14;;;;;;;31.95;21.08;;;1.70;99.90;;;;;;5111141;28;20100;-75
2022/04/05 05:55:40;;;;;;;32.63;21.48;;;1.70;99.90;;;;;;5111340;28;20024;-74
2022/04/05 05:58:06;;;;;;;31.70;21.10;;;1.70;99.90;;;;;;5111330;28;20042;-74
2022/04/05 06:00:31;;;;;;;37.00;20.55;;;1.70;99.90;;;;;;5111506;28;20519;-72
2022/04/05 06:03:01;;;;;;;31.02;20.17;;;1.70;99.90;;;;;;5110748;28;20059;-74
2022/04/05 06:05:28;;;;;;;31.85;20.05;;;1.70;99.90;;;;;;5109624;28;20035;-72
2022/04/05 06:07:54;;;;;;;38.08;23.73;;;1.80;99.90;;;;;;5108392;28;20042;-74
2022/04/05 06:10:21;;;;;;;35.75;22.90;;;1.80;99.90;;;;;;5110302;28;20020;-72
2022/04/05 06:12:50;;;;;;;36.85;21.88;;;1.80;99.90;;;;;;5111028;28;20023;-72
2022/04/05 06:15:17;;;;;;;32.78;19.63;;;1.80;99.90;;;;;;5112541;28;20020;-71
2022/04/05 06:17:45;;;;;;;36.92;23.00;;;1.80;99.90;;;;;;5114770;28;20086;-72
2022/04/05 06:20:13;;;;;;;86.82;38.38;;;1.90;99.90;;;;;;5117522;28;20024;-75
2022/04/05 06:22:44;;;;;;;87.25;39.42;;;1.90;99.90;;;;;;5116232;28;20016;-72
2022/04/05 06:25:12;;;;;;;62.08;31.77;;;1.90;99.90;;;;;;5116088;28;20385;-72
2022/04/05 06:27:38;;;;;;;53.30;28.67;;;1.90;99.90;;;;;;5117041;28;20408;-74
2022/04/05 06:30:05;;;;;;;35.75;22.80;;;2.00;99.90;;;;;;5117511;28;20020;-74
2022/04/05 06:32:31;;;;;;;37.83;22.98;;;2.00;99.90;;;;;;5115668;28;20547;-72
2022/04/05 06:34:57;;;;;;;32.80;20.75;;;2.00;99.90;;;;;;5117259;28;20057;-74
2022/04/05 06:37:22;;;;;;;42.20;24.33;;;2.10;99.90;;;;;;5116798;28;20076;-73
2022/04/05 06:39:48;;;;;;;30.85;19.27;;;2.10;99.90;;;;;;5117215;28;20074;-75
2022/04/05 06:42:14;;;;;;;42.78;24.17;;;2.10;99.90;;;;;;5117280;28;20024;-71
2022/04/05 06:44:39;;;;;;;42.28;25.73;;;2.10;99.90;;;;;;5117038;28;20022;-74
2022/04/05 06:47:06;;;;;;;35.40;21.58;;;2.20;99.90;;;;;;5116818;28;20113;-74
2022/04/05 06:49:32;;;;;;;34.47;21.20;;;2.20;99.90;;;;;;5116865;28;20023;-75
2022/04/05 06:51:58;;;;;;;36.53;22.58;;;2.10;99.90;;;;;;5116938;28;20034;-71
2022/04/05 06:54:23;;;;;;;31.88;20.05;;;2.20;99.90;;;;;;5116924;28;20023;-73
2022/04/05 06:56:49;;;;;;;42.80;24.55;;;2.10;99.90;;;;;;5116564;28;20448;-73
2022/04/05 06:59:14;;;;;;;35.75;21.70;;;2.20;99.90;;;;;;5115410;28;20473;-72
2022/04/05 07:01:40;;;;;;;37.75;22.55;;;2.20;99.90;;;;;;5116696;28;20024;-74
2022/04/05 07:04:06;;;;;;;31.73;20.23;;;2.30;99.90;;;;;;5115464;28;20465;-72
2022/04/05 07:06:31;;;;;;;38.90;24.65;;;2.30;99.90;;;;;;5116407;28;20027;-73
2022/04/05 07:08:57;;;;;;;33.25;21.17;;;2.20;99.90;;;;;;5116712;28;20023;-74
2022/04/05 07:11:23;;;;;;;30.73;21.10;;;2.30;99.90;;;;;;5116376;28;20024;-72
2022/04/05 07:13:48;;;;;;;40.33;26.75;;;2.30;99.90;;;;;;5115210;28;20028;-73
2022/04/05 07:16:14;;;;;;;30.60;19.58;;;2.30;99.90;;;;;;5116475;28;20028;-71
2022/04/05 07:18:39;;;;;;;34.78;23.38;;;2.30;99.90;;;;;;5114951;28;20499;-74
2022/04/05 07:21:05;;;;;;;30.55;20.35;;;2.30;99.90;;;;;;5115048;28;20051;-72
2022/04/05 07:23:30;;;;;;;29.38;19.25;;;2.30;99.90;;;;;;5114964;28;20481;-74
2022/04/05 07:25:56;;;;;;;27.70;19.00;;;2.30;99.90;;;;;;5116156;28;20419;-73
2022/04/05 07:28:21;;;;;;;28.42;18.60;;;2.30;99.90;;;;;;5115377;28;20050;-71
2022/04/05 07:30:47;;;;;;;29.85;19.83;;;2.30;99.90;;;;;;5115596;28;20422;-71
2022/04/05 07:33:12;;;;;;;27.98;20.67;;;2.40;99.90;;;;;;5114568;28;20069;-72
2022/04/05 07:35:38;;;;;;;28.48;18.90;;;2.40;99.90;;;;;;5114711;28;20026;-74
2022/04/05 07:38:03;;;;;;;27.30;17.27;;;2.40;99.90;;;;;;5114230;28;20058;-75
2022/04/05 07:40:47;;;;;;;26.58;19.25;;;2.40;99.90;;;;;;5115936;28;20032;-74
2022/04/05 07:43:18;;;;;;;22.90;16.92;;;2.40;99.90;;;;;;5115876;28;20495;-71
2022/04/05 07:45:44;;;;;;;23.45;17.65;;;2.40;99.90;;;;;;5115770;28;20396;-74
2022/04/05 07:48:10;;;;;;;23.92;17.00;;;2.40;99.90;;;;;;5115676;28;20035;-74
2022/04/05 07:50:36;;;;;;;30.15;19.02;;;2.40;99.90;;;;;;5115588;28;20020;-72
2022/04/05 07:53:02;;;;;;;27.30;19.17;;;2.50;99.90;;;;;;5115802;28;20019;-74
2022/04/05 07:55:28;;;;;;;23.30;17.33;;;2.50;99.90;;;;;;5115430;28;20015;-72
2022/04/05 07:57:54;;;;;;;27.58;17.23;;;2.50;99.90;;;;;;5113990;28;20031;-73
2022/04/05 08:00:20;;;;;;;25.33;17.20;;;2.60;99.90;;;;;;5114286;28;20024;-72
2022/04/05 08:02:46;;;;;;;25.70;17.75;;;2.50;99.90;;;;;;5115424;28;20476;-72
2022/04/05 08:05:12;;;;;;;27.85;19.58;;;2.60;99.90;;;;;;5115494;28;20035;-72
2022/04/05 08:07:38;;;;;;;22.20;16.50;;;2.60;99.90;;;;;;5115348;28;20031;-72
2022/04/05 08:10:04;;;;;;;24.60;17.02;;;2.60;99.90;;;;;;5115531;28;20077;-73
2022/04/05 08:12:42;;;;;;;23.75;16.48;;;2.60;99.90;;;;;;5114108;28;20049;-71
2022/04/05 08:15:08;;;;;;;25.35;16.35;;;2.70;99.90;;;;;;5115423;28;20054;-74
2022/04/05 08:17:34;;;;;;;24.45;16.05;;;2.60;99.90;;;;;;5113539;28;20096;-73
2022/04/05 08:19:59;;;;;;;22.88;15.68;;;2.70;99.90;;;;;;5115172;28;20019;-75
2022/04/05 08:22:25;;;;;;;23.40;17.00;;;2.70;99.90;;;;;;5115427;28;20027;-72
2022/04/05 08:24:51;;;;;;;29.27;17.80;;;2.70;99.90;;;;;;5115091;28;20426;-74
2022/04/05 08:27:16;;;;;;;24.02;16.52;;;2.80;99.90;;;;;;5113807;28;20027;-73
2022/04/05 08:29:42;;;;;;;21.63;16.58;;;2.80;99.90;;;;;;5114883;28;20145;-72
2022/04/05 08:32:07;;;;;;;24.73;16.15;;;2.80;99.90;;;;;;5114964;27;20084;-73
2022/04/05 08:34:33;;;;;;;20.48;14.80;;;2.80;99.90;;;;;;5114989;28;20027;-73
2022/04/05 08:36:59;;;;;;;21.85;15.27;;;2.80;99.90;;;;;;5114921;28;20036;-73
2022/04/05 08:39:27;;;;;;;25.00;16.48;;;2.80;99.90;;;;;;5113829;28;20028;-72
2022/04/05 08:41:55;;;;;;;20.90;14.00;;;2.80;99.90;;;;;;5114427;28;20020;-72
2022/04/05 08:44:22;;;;;;;22.30;16.20;;;2.80;99.90;;;;;;5113266;28;20062;-74
2022/04/05 08:46:50;;;;;;;20.67;15.00;;;2.80;99.90;;;;;;5114187;28;20024;-72
2022/04/05 08:49:15;;;;;;;22.30;15.48;;;2.80;99.90;;;;;;5113082;28;20032;-72
2022/04/05 08:51:41;;;;;;;25.75;16.02;;;2.80;99.90;;;;;;5114655;28;20023;-71
2022/04/05 08:54:06;;;;;;;23.90;16.80;;;2.80;99.90;;;;;;5114571;28;20023;-74
2022/04/05 08:56:32;;;;;;;21.17;15.65;;;2.90;99.90;;;;;;5113248;28;20389;-72
2022/04/05 08:58:58;;;;;;;20.80;15.23;;;2.90;99.90;;;;;;5114202;28;20463;-72
2022/04/05 09:01:29;;;;;;;24.88;15.55;;;2.90;99.90;;;;;;5114367;28;20094;-73
2022/04/05 09:03:55;;;;;;;20.00;14.02;;;3.00;99.90;;;;;;5113170;28;20069;-71
2022/04/05 09:06:26;;;;;;;21.38;15.32;;;3.00;99.90;;;;;;5114344;28;20446;-72
2022/04/05 09:09:08;;;;;;;20.65;15.23;;;3.00;99.90;;;;;;5112735;28;20119;-74
2022/04/05 09:11:35;;;;;;;24.70;16.75;;;3.10;99.90;;;;;;5114195;28;20024;-74
2022/04/05 09:14:02;;;;;;;19.10;14.48;;;3.20;99.90;;;;;;5114221;28;20016;-71
2022/04/05 09:16:31;;;;;;;25.73;16.75;;;3.20;99.90;;;;;;5114153;28;20106;-71
2022/04/05 09:18:58;;;;;;;23.92;16.42;;;3.50;99.90;;;;;;5113735;28;20051;-74
2022/04/05 09:21:24;;;;;;;21.75;15.27;;;3.40;99.90;;;;;;5113928;28;20020;-74
2022/04/05 09:23:52;;;;;;;23.45;16.15;;;3.30;99.90;;;;;;5112819;28;20084;-75
2022/04/05 09:26:18;;;;;;;22.08;15.63;;;3.40;99.90;;;;;;5112663;28;20043;-71
2022/04/05 09:28:46;;;;;;;21.08;15.73;;;3.50;99.90;;;;;;5113818;28;20024;-74
2022/04/05 09:31:18;;;;;;;25.10;16.58;;;3.50;99.90;;;;;;5113588;28;20564;-74
2022/04/05 09:34:04;;;;;;;21.55;14.43;;;3.60;99.90;;;;;;5114025;28;20037;-74
2022/04/05 09:36:38;;;;;;;24.02;17.17;;;3.60;99.90;;;;;;5113845;28;20422;-74
2022/04/05 09:39:16;;;;;;;21.95;15.65;;;3.60;99.90;;;;;;5113768;28;20062;-72
2022/04/05 09:41:41;;;;;;;24.13;16.50;;;3.60;99.90;;;;;;5113856;28;20020;-72
2022/04/05 09:44:07;;;;;;;22.25;14.82;;;3.60;99.90;;;;;;5113769;28;20098;-74
2022/04/05 09:46:35;;;;;;;24.67;16.92;;;3.60;99.90;;;;;;5112476;28;20454;-74
2022/04/05 09:49:12;;;;;;;22.80;15.95;;;3.70;99.90;;;;;;5112184;28;20099;-74
2022/04/05 09:51:44;;;;;;;21.15;14.05;;;3.80;99.90;;;;;;5112553;28;20118;-74
2022/04/05 09:54:27;;;;;;;21.23;14.75;;;3.80;99.90;;;;;;5113120;28;20036;-74
2022/04/05 09:56:59;;;;;;;19.33;14.25;;;3.80;99.90;;;;;;5111316;28;20403;-71
2022/04/05 09:59:25;;;;;;;20.25;14.85;;;3.90;99.90;;;;;;5110076;28;20031;-72
2022/04/05 10:01:56;;;;;;;17.02;14.68;;;3.80;99.90;;;;;;5110882;28;20019;-71
2022/04/05 10:04:22;;;;;;;22.08;16.10;;;3.80;99.90;;;;;;5111113;28;20073;-71
2022/04/05 10:06:48;;;;;;;24.20;16.40;;;4.00;99.90;;;;;;5112479;28;20028;-71
2022/04/05 10:09:16;;;;;;;25.98;17.48;;;4.10;99.90;;;;;;5112412;28;20024;-72
2022/04/05 10:11:43;;;;;;;21.15;14.45;;;4.10;99.90;;;;;;5110906;28;20034;-71
2022/04/05 10:14:11;;;;;;;24.13;14.27;;;4.00;99.90;;;;;;5112407;28;20084;-70
2022/04/05 10:16:38;;;;;;;22.80;14.50;;;4.00;99.90;;;;;;5112078;28;20376;-71
2022/04/05 10:19:09;;;;;;;33.72;20.08;;;4.00;99.90;;;;;;5111834;28;20039;-72
2022/04/05 10:21:38;;;;;;;30.50;18.00;;;4.00;99.90;;;;;;5110170;28;20068;-73
2022/04/05 10:24:05;;;;;;;58.00;31.95;;;4.10;99.90;;;;;;5112374;28;20076;-72
2022/04/05 10:26:37;;;;;;;23.67;17.15;;;4.20;99.90;;;;;;5112944;28;20023;-71
2022/04/05 10:29:08;;;;;;;26.63;16.52;;;4.20;99.90;;;;;;5112316;28;20508;-72
2022/04/05 10:31:57;;;;;;;20.17;14.57;;;4.30;99.90;;;;;;5111386;28;21108;-71
2022/04/05 10:34:28;;;;;;;20.35;13.20;;;4.40;99.90;;;;;;5109652;28;20036;-72
2022/04/05 10:37:17;;;;;;;23.38;16.83;;;4.40;99.90;;;;;;5110669;28;20027;-71
2022/04/05 10:40:04;;;;;;;23.13;14.05;;;4.40;99.90;;;;;;5112368;28;20027;-72
2022/04/05 10:42:43;;;;;;;18.90;13.32;;;4.50;99.90;;;;;;5107410;28;20135;-71
2022/04/05 10:45:19;;;;;;;18.10;13.45;;;4.50;99.90;;;;;;5112705;28;20485;-72
2022/04/05 10:48:12;;;;;;;24.85;16.40;;;4.50;99.90;;;;;;5111080;28;20030;-72
2022/04/05 10:50:39;;;;;;;21.02;15.57;;;4.40;99.90;;;;;;5111153;28;20046;-71
2022/04/05 10:53:17;;;;;;;22.65;14.85;;;4.50;99.90;;;;;;5110309;28;20465;-74
2022/04/05 10:56:05;;;;;;;15.48;11.82;;;4.50;99.90;;;;;;5108227;28;20019;-72
2022/04/05 10:58:32;;;;;;;17.73;13.25;;;4.50;99.90;;;;;;5109473;28;20024;-72
2022/04/05 11:01:13;;;;;;;19.08;12.88;;;4.50;99.90;;;;;;5112106;28;20055;-72
2022/04/05 11:03:39;;;;;;;16.35;12.18;;;4.40;99.90;;;;;;5112376;28;20024;-73
2022/04/05 11:06:06;;;;;;;15.20;12.57;;;4.40;99.90;;;;;;5115910;28;20024;-72
2022/04/05 11:08:32;;;;;;;16.88;13.25;;;4.40;99.90;;;;;;5114641;28;20039;-72
2022/04/05 11:11:04;;;;;;;16.17;12.65;;;4.40;99.90;;;;;;5115626;28;20072;-72
2022/04/05 11:13:39;;;;;;;18.25;12.73;;;4.40;99.90;;;;;;5111705;28;20014;-72
2022/04/05 11:16:10;;;;;;;22.63;15.80;;;4.40;99.90;;;;;;5114354;28;20363;-71
2022/04/05 11:18:37;;;;;;;17.55;12.35;;;4.40;99.90;;;;;;5115770;28;20059;-71
2022/04/05 11:21:08;;;;;;;16.05;11.60;;;4.40;99.90;;;;;;5115820;28;20107;-74
2022/04/05 11:23:47;;;;;;;19.00;12.65;;;4.40;99.90;;;;;;5115120;28;20031;-71
2022/04/05 11:26:35;;;;;;;16.48;12.15;;;4.40;99.90;;;;;;5116218;28;20069;-73
2022/04/05 11:29:16;;;;;;;14.20;11.90;;;4.40;99.90;;;;;;5116083;28;20043;-73
2022/04/05 11:31:42;;;;;;;16.58;11.90;;;4.40;99.90;;;;;;5110447;28;20092;-73
2022/04/05 11:34:37;;;;;;;19.05;13.30;;;4.50;99.90;;;;;;5114914;28;20023;-74
2022/04/05 11:37:05;;;;;;;18.75;12.85;;;4.50;99.90;;;;;;5112899;28;20019;-72
2022/04/05 11:39:38;;;;;;;18.48;13.50;;;4.50;99.90;;;;;;5114623;27;20380;-74
2022/04/05 11:42:04;;;;;;;18.35;13.02;;;4.50;99.90;;;;;;5113500;28;20045;-74
2022/04/05 11:44:30;;;;;;;15.52;11.60;;;4.50;99.90;;;;;;5114742;28;20019;-74
2022/04/05 11:46:58;;;;;;;16.55;13.43;;;4.50;99.90;;;;;;5113453;28;20499;-71
2022/04/05 11:49:24;;;;;;;17.48;12.77;;;4.50;99.90;;;;;;5115585;28;20500;-73
2022/04/05 11:51:50;;;;;;;27.08;16.00;;;4.50;99.90;;;;;;5112344;28;20063;-71
2022/04/05 11:54:21;;;;;;;21.70;16.85;;;4.60;99.90;;;;;;5115663;28;20037;-74
2022/04/05 11:56:47;;;;;;;19.70;12.65;;;4.60;99.90;;;;;;5114381;28;20477;-73
2022/04/05 11:59:14;;;;;;;21.42;14.13;;;4.60;99.90;;;;;;5114312;28;20042;-74
2022/04/05 12:01:42;;;;;;;17.85;13.60;;;4.60;99.90;;;;;;5115325;27;20030;-71
2022/04/05 12:04:17;;;;;;;17.40;11.93;;;4.70;99.90;;;;;;5115553;28;20020;-73
2022/04/05 12:06:45;;;;;;;16.83;12.55;;;4.70;99.90;;;;;;5115442;28;20491;-72
2022/04/05 12:09:19;;;;;;;20.45;13.23;;;4.70;99.90;;;;;;5109877;28;20030;-71
2022/04/05 12:11:50;;;;;;;17.35;11.88;;;4.80;99.90;;;;;;5113660;28;20024;-72
2022/04/05 12:14:20;;;;;;;29.33;17.20;;;4.90;99.90;;;;;;5114066;27;20040;-72
2022/04/05 12:16:53;;;;;;;16.73;12.00;;;5.20;99.90;;;;;;5111480;28;20077;-73
2022/04/05 12:19:24;;;;;;;19.30;12.00;;;5.40;99.90;;;;;;5114309;27;20032;-71
2022/04/05 12:22:07;;;;;;;45.10;24.67;;;5.50;99.90;;;;;;5112505;28;20117;-71
2022/04/05 12:24:35;;;;;;;15.85;10.88;;;5.50;99.90;;;;;;5114186;27;20066;-72
2022/04/05 12:27:03;;;;;;;41.58;22.52;;;5.50;99.90;;;;;;5113935;28;20023;-72
2022/04/05 12:29:30;;;;;;;18.88;12.07;;;5.50;99.90;;;;;;5112702;28;20031;-73
2022/04/05 12:32:04;;;;;;;14.88;10.93;;;5.40;99.90;;;;;;5112675;28;20052;-72
2022/04/05 12:34:31;;;;;;;14.27;11.68;;;5.50;99.90;;;;;;5112768;28;20039;-74
2022/04/05 12:36:59;;;;;;;19.63;10.40;;;5.40;99.90;;;;;;5091772;28;20432;-74
2022/04/05 12:39:28;;;;;;;15.30;11.65;;;5.40;99.90;;;;;;5093390;28;20032;-74